createdAt,value
2022-08-03T00:02:17.588Z,961.07
2022-08-03T00:04:45.660Z,978.20
2022-08-03T00:07:15.027Z,950.13
2022-08-03T00:09:43.012Z,971.87
2022-08-03T00:12:11.211Z,968.87
2022-08-03T00:14:39.036Z,986.10
2022-08-03T00:17:06.876Z,970.50
2022-08-03T00:19:34.801Z,976.30
2022-08-03T00:22:02.705Z,978.67
2022-08-03T00:24:32.322Z,982.40
2022-08-03T00:27:00.232Z,958.63
2022-08-03T00:29:28.920Z,965.80
2022-08-03T00:32:00.097Z,968.40
2022-08-03T00:34:36.736Z,974.10
2022-08-03T00:37:16.828Z,972.23
2022-08-03T00:39:48.075Z,984.80
2022-08-03T00:42:16.379Z,968.67
2022-08-03T00:44:45.971Z,960.10
2022-08-03T00:47:13.902Z,970.93
2022-08-03T00:49:42.272Z,955.87
2022-08-03T00:52:10.893Z,956.70
2022-08-03T00:54:39.155Z,970.30
2022-08-03T00:57:08.654Z,978.57
2022-08-03T00:59:38.177Z,967.67
2022-08-03T01:02:06.508Z,954.07
2022-08-03T01:04:34.353Z,973.43
2022-08-03T01:07:10.879Z,959.57
2022-08-03T01:09:43.499Z,971.50
2022-08-03T01:12:20.152Z,973.13
2022-08-03T01:14:53.326Z,979.03
2022-08-03T01:17:25.409Z,982.43
2022-08-03T01:19:58.753Z,982.77
2022-08-03T01:22:47.457Z,976.27
2022-08-03T01:25:24.997Z,976.67
2022-08-03T01:27:59.364Z,964.10
2022-08-03T01:30:29.984Z,965.80
2022-08-03T01:33:02.176Z,976.97
2022-08-03T01:35:38.320Z,968.83
2022-08-03T01:38:11.851Z,978.20
2022-08-03T01:40:41.662Z,993.40
2022-08-03T01:43:11.098Z,972.57
2022-08-03T01:45:40.872Z,980.33
2022-08-03T01:48:09.040Z,987.90
2022-08-03T01:50:37.051Z,983.30
2022-08-03T01:53:05.463Z,988.30
2022-08-03T01:55:34.303Z,973.83
2022-08-03T01:58:05.655Z,979.67
2022-08-03T02:00:35.080Z,983.60
2022-08-03T02:03:06.146Z,997.73
2022-08-03T02:05:34.601Z,992.33
2022-08-03T02:08:03.078Z,989.97
2022-08-03T02:10:35.467Z,977.20
2022-08-03T02:13:06.442Z,989.67
2022-08-03T02:15:35.306Z,985.80
2022-08-03T02:18:07.461Z,977.37
2022-08-03T02:20:36.419Z,975.07
2022-08-03T02:23:04.610Z,994.60
2022-08-03T02:25:33.628Z,993.60
2022-08-03T02:28:08.217Z,983.00
2022-08-03T02:30:39.067Z,980.23
2022-08-03T02:33:12.053Z,985.03
2022-08-03T02:35:41.241Z,979.97
2022-08-03T02:38:11.509Z,995.50
2022-08-03T02:40:40.258Z,997.47
2022-08-03T02:43:10.402Z,992.10
2022-08-03T02:45:45.543Z,994.37
2022-08-03T02:48:17.595Z,998.30
2022-08-03T02:50:46.052Z,991.93
2022-08-03T02:53:14.154Z,999.90
2022-08-03T02:55:45.818Z,984.40
2022-08-03T02:58:14.829Z,993.57
2022-08-03T03:00:45.460Z,996.83
2022-08-03T03:03:15.605Z,983.20
2022-08-03T03:05:56.009Z,989.20
2022-08-03T03:08:27.468Z,988.87
2022-08-03T03:10:57.022Z,994.20
2022-08-03T03:13:25.155Z,995.03
2022-08-03T03:15:54.622Z,995.67
2022-08-03T03:18:24.254Z,988.17
2022-08-03T03:20:53.007Z,986.53
2022-08-03T03:23:21.839Z,983.43
2022-08-03T03:25:49.737Z,987.67
2022-08-03T03:28:17.846Z,988.67
2022-08-03T03:30:52.733Z,999.90
2022-08-03T03:33:21.620Z,998.13
2022-08-03T03:35:51.669Z,997.13
2022-08-03T03:38:19.769Z,990.33
2022-08-03T03:40:47.720Z,970.13
2022-08-03T03:43:15.581Z,975.03
2022-08-03T03:45:43.535Z,973.10
2022-08-03T03:48:11.833Z,969.73
2022-08-03T03:50:41.040Z,974.53
2022-08-03T03:53:13.034Z,990.40
2022-08-03T03:56:01.576Z,968.20
2022-08-03T03:58:29.647Z,963.73
2022-08-03T04:00:57.544Z,975.57
2022-08-03T04:03:25.524Z,956.27
2022-08-03T04:09:22.282Z,983.67
2022-08-03T04:12:08.580Z,969.00
2022-08-03T04:14:37.127Z,982.43
2022-08-03T04:17:07.034Z,978.77
2022-08-03T04:19:37.848Z,981.70
2022-08-03T04:22:07.861Z,988.97
2022-08-03T04:24:41.189Z,988.33
2022-08-03T04:27:11.418Z,998.03
2022-08-03T04:29:48.257Z,999.90
2022-08-03T04:32:17.679Z,999.90
2022-08-03T04:34:45.915Z,999.90
2022-08-03T04:37:24.258Z,999.90
2022-08-03T04:39:54.975Z,999.70
2022-08-03T04:42:25.792Z,989.17
2022-08-03T04:44:58.952Z,999.90
2022-08-03T04:47:29.007Z,998.77
2022-08-03T04:49:57.002Z,999.77
2022-08-03T04:52:24.871Z,999.90
2022-08-03T04:54:54.169Z,999.90
2022-08-03T04:57:22.846Z,999.90
2022-08-03T04:59:59.603Z,999.90
2022-08-03T05:02:30.912Z,999.10
2022-08-03T05:04:59.196Z,999.90
2022-08-03T05:07:36.357Z,999.90
2022-08-03T05:10:14.986Z,999.90
2022-08-03T05:12:45.406Z,999.90
2022-08-03T05:15:13.677Z,999.90
2022-08-03T05:17:41.655Z,999.90
2022-08-03T05:20:11.077Z,999.90
2022-08-03T05:22:38.964Z,999.90
2022-08-03T05:25:08.905Z,999.90
2022-08-03T05:27:36.710Z,999.90
2022-08-03T05:34:18.036Z,993.17
2022-08-03T05:36:48.724Z,999.90
2022-08-03T05:39:16.572Z,999.90
2022-08-03T05:41:45.799Z,999.90
2022-08-03T05:44:13.718Z,999.90
2022-08-03T05:46:41.534Z,998.60
2022-08-03T05:49:09.453Z,999.90
2022-08-03T05:51:37.276Z,999.90
2022-08-03T05:54:05.323Z,999.90
2022-08-03T05:56:33.150Z,999.90
2022-08-03T05:59:22.474Z,999.90
2022-08-03T06:01:51.691Z,996.70
2022-08-03T06:04:19.836Z,999.23
2022-08-03T06:06:48.308Z,999.90
2022-08-03T06:09:16.317Z,999.90
2022-08-03T06:11:44.384Z,999.90
2022-08-03T06:14:15.275Z,999.90
2022-08-03T06:16:43.222Z,999.90
2022-08-03T06:19:11.088Z,999.90
2022-08-03T06:21:39.853Z,999.90
2022-08-03T06:24:08.470Z,999.90
2022-08-03T06:26:36.894Z,999.90
2022-08-03T06:29:04.833Z,999.90
2022-08-03T06:31:37.820Z,999.90
2022-08-03T06:34:33.267Z,999.90
2022-08-03T06:36:58.638Z,999.90
2022-08-03T06:39:29.958Z,999.90
2022-08-03T06:41:58.033Z,999.90
2022-08-03T06:44:26.192Z,999.90
2022-08-03T06:46:55.782Z,999.90
2022-08-03T06:49:23.913Z,999.90
2022-08-03T06:52:06.262Z,999.90
2022-08-03T06:54:37.716Z,999.90
2022-08-03T06:57:08.062Z,999.90
2022-08-03T07:00:07.338Z,999.90
2022-08-03T07:02:25.014Z,999.90
2022-08-03T07:04:56.097Z,999.90
2022-08-03T07:07:24.047Z,999.90
2022-08-03T07:09:56.823Z,999.90
2022-08-03T07:12:27.278Z,999.90
2022-08-03T07:14:59.746Z,999.90
2022-08-03T07:17:30.923Z,999.90
2022-08-03T07:19:58.868Z,999.90
2022-08-03T07:22:26.788Z,999.90
2022-08-03T07:24:54.778Z,999.90
2022-08-03T07:27:22.576Z,999.90
2022-08-03T07:29:50.375Z,999.90
2022-08-03T07:32:18.605Z,999.90
2022-08-03T07:34:47.981Z,999.90
2022-08-03T07:37:15.814Z,999.90
2022-08-03T07:39:43.733Z,999.90
2022-08-03T07:42:11.631Z,999.90
2022-08-03T07:44:39.848Z,999.90
2022-08-03T07:47:07.660Z,999.90
2022-08-03T07:49:41.138Z,999.90
2022-08-03T07:52:28.313Z,999.90
2022-08-03T07:54:56.583Z,999.90
2022-08-03T07:57:24.533Z,999.90
2022-08-03T08:00:01.435Z,999.90
2022-08-03T08:02:39.857Z,999.90
2022-08-03T08:05:08.551Z,999.90
2022-08-03T08:07:37.781Z,999.90
2022-08-03T08:10:06.680Z,999.90
2022-08-03T08:12:34.486Z,999.90
2022-08-03T08:15:02.312Z,999.90
2022-08-03T08:17:30.115Z,999.90
2022-08-03T08:19:57.952Z,999.90
2022-08-03T08:22:30.628Z,999.90
2022-08-03T08:25:01.516Z,999.90
2022-08-03T08:28:31.517Z,999.90
2022-08-03T08:30:19.577Z,999.90
2022-08-03T08:32:47.796Z,999.90
2022-08-03T08:35:15.658Z,999.90
2022-08-03T08:37:44.283Z,999.90
2022-08-03T08:40:22.082Z,999.90
2022-08-03T08:42:59.086Z,999.90
2022-08-03T08:45:27.508Z,999.90
2022-08-03T08:48:00.810Z,999.90
2022-08-03T08:50:29.849Z,999.90
2022-08-03T08:53:02.102Z,999.90
2022-08-03T08:55:58.314Z,999.90
2022-08-03T08:58:21.044Z,999.90
2022-08-03T09:00:49.368Z,999.90
2022-08-03T09:03:22.391Z,999.90
2022-08-03T09:05:57.708Z,999.90
2022-08-03T09:08:25.613Z,999.90
2022-08-03T09:10:54.849Z,999.90
2022-08-03T09:13:22.809Z,999.90
2022-08-03T09:16:00.722Z,999.90
2022-08-03T09:18:32.950Z,999.90
2022-08-03T09:21:34.265Z,999.90
2022-08-03T09:24:05.127Z,999.90
2022-08-03T09:26:37.059Z,999.90
2022-08-03T09:29:13.532Z,999.90
2022-08-03T09:31:44.658Z,999.90
2022-08-03T09:34:13.872Z,999.90
2022-08-03T09:36:43.987Z,999.90
2022-08-03T09:39:13.565Z,999.90
2022-08-03T09:41:44.205Z,999.90
2022-08-03T09:44:24.412Z,999.90
2022-08-03T09:46:54.837Z,999.90
2022-08-03T09:49:22.963Z,999.90
2022-08-03T09:52:32.867Z,999.90
2022-08-03T09:54:39.517Z,999.90
2022-08-03T09:57:08.989Z,999.90
2022-08-03T09:59:39.158Z,999.90
2022-08-03T10:02:22.034Z,999.90
2022-08-03T10:04:52.477Z,999.90
2022-08-03T10:07:21.068Z,999.90
2022-08-03T10:09:57.134Z,999.90
2022-08-03T10:12:26.843Z,999.90
2022-08-03T10:14:55.770Z,999.90
2022-08-03T10:17:24.246Z,999.90
2022-08-03T10:19:52.081Z,999.90
2022-08-03T10:22:22.420Z,999.90
2022-08-03T10:24:54.796Z,999.90
2022-08-03T10:27:24.372Z,999.90
2022-08-03T10:29:57.098Z,999.90
2022-08-03T10:32:29.764Z,999.90
2022-08-03T10:35:20.371Z,999.90
2022-08-03T10:37:56.947Z,999.90
2022-08-03T10:43:22.866Z,999.90
2022-08-03T10:45:52.525Z,999.90
2022-08-03T10:48:20.930Z,999.90
2022-08-03T10:50:50.238Z,999.90
2022-08-03T10:53:20.001Z,999.90
2022-08-03T10:56:11.205Z,999.90
2022-08-03T10:58:57.006Z,999.90
2022-08-03T11:02:00.802Z,999.90
2022-08-03T11:04:30.946Z,999.90
2022-08-03T11:07:22.400Z,999.90
2022-08-03T11:09:53.560Z,999.90
2022-08-03T11:12:27.839Z,999.90
2022-08-03T11:15:00.486Z,999.90
2022-08-03T11:17:28.570Z,999.90
2022-08-03T11:19:58.639Z,999.90
2022-08-03T11:22:29.118Z,999.90
2022-08-03T11:25:00.698Z,999.90
2022-08-03T11:27:30.312Z,999.90
2022-08-03T11:30:00.986Z,999.90
2022-08-03T11:32:59.737Z,999.90
2022-08-03T11:35:30.564Z,999.90
2022-08-03T11:38:09.900Z,999.90
2022-08-03T11:40:42.311Z,999.90
2022-08-03T11:43:11.397Z,999.90
2022-08-03T11:45:39.482Z,999.90
2022-08-03T11:48:17.886Z,999.90
2022-08-03T11:50:47.000Z,999.90
2022-08-03T11:53:19.895Z,999.90
2022-08-03T11:55:49.814Z,999.90
2022-08-03T11:59:16.528Z,999.90
2022-08-03T12:01:08.758Z,999.90
2022-08-03T12:03:37.171Z,999.90
2022-08-03T12:06:12.274Z,999.90
2022-08-03T12:08:40.857Z,999.90
2022-08-03T12:11:10.603Z,999.90
2022-08-03T12:14:10.661Z,736.13
2022-08-03T12:16:29.613Z,634.83
2022-08-03T12:18:58.643Z,620.33
2022-08-03T12:21:27.977Z,621.83
2022-08-03T12:23:58.990Z,636.10
2022-08-03T12:26:27.315Z,590.40
2022-08-03T12:28:55.223Z,488.83
2022-08-03T12:31:23.418Z,391.07
2022-08-03T12:34:02.756Z,542.97
2022-08-03T12:36:33.966Z,999.90
2022-08-03T12:39:03.171Z,715.67
2022-08-03T12:41:34.037Z,856.53
2022-08-03T12:44:03.401Z,694.13
2022-08-03T12:46:34.143Z,661.80
2022-08-03T12:49:07.704Z,219.53
2022-08-03T12:51:38.924Z,157.07
2022-08-03T12:54:06.936Z,169.37
2022-08-03T12:56:35.845Z,200.10
2022-08-03T12:59:34.759Z,199.77
2022-08-03T13:02:15.656Z,191.50
2022-08-03T13:04:43.651Z,193.93
2022-08-03T13:07:14.315Z,192.13
2022-08-03T13:09:46.845Z,136.30
2022-08-03T13:12:16.244Z,187.23
2022-08-03T13:14:45.144Z,178.43
2022-08-03T13:17:13.449Z,177.27
2022-08-03T13:19:41.736Z,180.70
2022-08-03T13:22:15.246Z,168.90
2022-08-03T13:24:44.056Z,158.90
2022-08-03T13:28:01.465Z,154.40
2022-08-03T13:30:00.755Z,146.10
2022-08-03T13:32:28.773Z,177.80
2022-08-03T13:34:56.649Z,214.27
2022-08-03T13:37:26.284Z,333.40
2022-08-03T13:39:59.482Z,999.90
2022-08-03T13:42:30.275Z,999.90
2022-08-03T13:44:58.614Z,999.90
2022-08-03T13:47:26.693Z,999.90
2022-08-03T13:50:01.279Z,999.90
2022-08-03T13:52:36.048Z,999.90
2022-08-03T13:55:05.257Z,999.90
2022-08-03T13:58:03.455Z,999.90
2022-08-03T14:00:26.984Z,999.90
2022-08-03T14:03:04.034Z,999.90
2022-08-03T14:05:33.480Z,999.90
2022-08-03T14:08:05.346Z,999.90
2022-08-03T14:10:34.718Z,999.90
2022-08-03T14:13:02.590Z,999.90
2022-08-03T14:15:30.604Z,999.90
2022-08-03T14:17:58.981Z,999.90
2022-08-03T14:20:37.912Z,999.90
2022-08-03T14:23:15.650Z,999.90
2022-08-03T14:25:52.441Z,999.90
2022-08-03T14:28:23.424Z,999.90
2022-08-03T14:30:51.977Z,999.90
2022-08-03T14:33:20.041Z,999.90
2022-08-03T14:35:47.900Z,999.90
2022-08-03T14:38:17.403Z,999.90
2022-08-03T14:40:45.394Z,999.90
2022-08-03T14:43:13.290Z,999.90
2022-08-03T14:45:41.300Z,999.90
2022-08-03T14:50:30.251Z,999.90
2022-08-03T14:50:57.162Z,999.90
2022-08-03T14:53:26.353Z,999.90
2022-08-03T14:55:54.178Z,999.90
2022-08-03T14:58:22.691Z,999.90
2022-08-03T15:00:51.810Z,999.90
2022-08-03T15:03:23.133Z,999.90
2022-08-03T15:05:51.931Z,999.90
2022-08-03T15:08:19.930Z,999.90
2022-08-03T15:10:49.602Z,641.23
2022-08-03T15:13:18.005Z,591.83
2022-08-03T15:15:46.061Z,497.33
2022-08-03T15:18:13.999Z,492.23
2022-08-03T15:20:45.547Z,386.07
2022-08-03T15:23:23.450Z,717.57
2022-08-03T15:26:28.329Z,999.90
2022-08-03T15:28:40.552Z,644.33
2022-08-03T15:31:08.443Z,596.07
2022-08-03T15:33:36.404Z,586.73
2022-08-03T15:36:07.627Z,498.30
2022-08-03T15:38:35.507Z,374.60
2022-08-03T15:41:08.749Z,339.67
2022-08-03T15:43:42.052Z,310.93
2022-08-03T15:46:31.006Z,343.97
2022-08-03T15:48:59.145Z,253.80
2022-08-03T15:51:27.012Z,346.47
2022-08-03T15:53:55.962Z,270.87
2022-08-03T15:56:25.268Z,211.80
2022-08-03T15:59:09.609Z,220.33
2022-08-03T16:01:41.105Z,247.17
2022-08-03T16:04:09.403Z,250.63
2022-08-03T16:06:37.202Z,203.63
2022-08-03T16:09:23.899Z,203.33
2022-08-03T16:11:56.593Z,196.77
2022-08-03T16:14:34.678Z,186.40
2022-08-03T16:17:06.077Z,173.27
2022-08-03T16:19:33.952Z,170.00
2022-08-03T16:22:03.543Z,164.93
2022-08-03T16:24:31.931Z,165.80
2022-08-03T16:27:01.166Z,165.23
2022-08-03T16:29:29.665Z,155.30
2022-08-03T16:31:57.630Z,155.47
2022-08-03T16:34:25.607Z,153.90
2022-08-03T16:36:54.625Z,149.83
2022-08-03T16:39:22.642Z,149.17
2022-08-03T16:41:54.378Z,148.60
2022-08-03T16:44:31.500Z,120.00
2022-08-03T16:46:59.826Z,146.27
2022-08-03T16:49:54.657Z,143.43
2022-08-03T16:52:16.752Z,138.43
2022-08-03T16:54:50.548Z,129.30
2022-08-03T16:57:55.911Z,134.63
2022-08-03T17:00:11.785Z,125.33
2022-08-03T17:02:48.033Z,129.50
2022-08-03T17:05:16.317Z,130.57
2022-08-03T17:07:46.957Z,108.53
2022-08-03T17:10:22.055Z,140.37
2022-08-03T17:12:55.258Z,127.90
2022-08-03T17:15:38.366Z,112.47
2022-08-03T17:18:17.795Z,36.33
2022-08-03T17:20:47.973Z,32.13
2022-08-03T17:23:35.462Z,33.83
2022-08-03T17:26:18.761Z,31.90
2022-08-03T17:28:57.478Z,31.40
2022-08-03T17:31:30.789Z,31.33
2022-08-03T17:34:01.873Z,30.27
2022-08-03T17:36:54.096Z,29.20
2022-08-03T17:39:30.770Z,29.80
2022-08-03T17:42:05.377Z,31.43
2022-08-03T17:44:54.006Z,29.90
2022-08-03T17:47:29.295Z,30.00
2022-08-03T17:50:24.067Z,27.20
2022-08-03T17:53:07.236Z,29.03
2022-08-03T17:55:57.326Z,28.83
2022-08-03T17:58:37.942Z,27.27
2022-08-03T18:02:00.411Z,26.87
2022-08-03T18:04:21.138Z,26.97
2022-08-03T18:06:59.424Z,28.47
2022-08-03T18:10:06.399Z,26.97
2022-08-03T18:12:22.689Z,28.43
2022-08-03T18:14:57.174Z,28.60
2022-08-03T18:18:01.881Z,27.30
2022-08-03T18:20:31.164Z,28.13
2022-08-03T18:23:04.907Z,27.50
2022-08-03T18:25:44.873Z,28.13
2022-08-03T18:28:15.404Z,28.03
2022-08-03T18:30:54.387Z,25.30
2022-08-03T18:34:16.858Z,24.30
2022-08-03T18:36:17.832Z,20.77
2022-08-03T18:38:53.888Z,20.17
2022-08-03T18:41:32.148Z,19.03
2022-08-03T18:44:07.879Z,18.53
2022-08-03T18:46:47.269Z,18.33
2022-08-03T18:49:24.859Z,19.93
2022-08-03T18:52:04.805Z,19.20
2022-08-03T18:55:01.182Z,18.23
2022-08-03T18:57:39.710Z,17.67
2022-08-03T19:00:14.019Z,17.60
2022-08-03T19:02:49.033Z,20.70
2022-08-03T19:05:19.591Z,16.80
2022-08-03T19:08:00.171Z,17.33
2022-08-03T19:10:32.408Z,17.00
2022-08-03T19:13:05.459Z,19.40
2022-08-03T19:15:50.979Z,16.48
2022-08-03T19:20:51.128Z,19.83
2022-08-03T19:31:06.539Z,17.15
2022-08-03T19:36:27.529Z,14.70
2022-08-03T19:41:26.333Z,15.63
2022-08-03T20:01:54.961Z,14.32
2022-08-03T20:21:51.332Z,18.42
2022-08-03T21:46:12.950Z,8.20
2022-08-03T22:13:46.690Z,12.85
2022-08-03T23:22:00.685Z,16.85
